Time;durP1;ratioP1;P1;durP2;ratioP2;P2;SDS_P1;SDS_P2;PMS_P1;PMS_P2;Temp;Humidity;BMP_temperature;BMP_pressure;BME280_temperature;BME280_humidity;BME280_pressure;Samples;Min_cycle;Max_cycle;Signal;HPM_P1;HPM_P2
2022/12/29 11:22:26;;;;;;;26.75;3.13;;;11.20;96.10;;;;;;7413238;19;20337;-84
2022/12/29 11:24:56;;;;;;;28.42;6.05;;;11.30;96.80;;;;;;7416747;19;20014;-84
2022/12/29 11:27:26;;;;;;;23.65;4.03;;;11.80;95.90;;;;;;7413232;19;20023;-85
2022/12/29 11:29:56;;;;;;;30.43;3.90;;;12.30;94.70;;;;;;7433471;19;20030;-84
2022/12/29 11:32:27;;;;;;;22.35;3.33;;;12.60;93.40;;;;;;7420437;19;20027;-84
2022/12/29 11:34:57;;;;;;;22.83;3.53;;;13.10;92.60;;;;;;7424419;19;20042;-86
2022/12/29 11:37:33;;;;;;;142.10;31.30;;;13.20;91.10;;;;;;7407999;19;20014;-87
2022/12/29 11:40:07;;;;;;;69.80;15.57;;;13.20;90.50;;;;;;7423790;19;20077;-87
2022/12/29 11:42:39;;;;;;;59.85;10.63;;;13.40;90.50;;;;;;7414198;19;20101;-84
2022/12/29 11:45:08;;;;;;;;;;;13.60;89.60;;;;;;7412395;19;20018;-85
2022/12/29 11:47:37;;;;;;;31.33;6.50;;;13.70;88.70;;;;;;7433679;19;19986;-87
2022/12/29 11:50:09;;;;;;;27.08;4.65;;;13.70;88.60;;;;;;7418711;19;20014;-85
2022/12/29 11:52:41;;;;;;;29.75;5.38;;;13.70;88.00;;;;;;7416897;19;20018;-89
2022/12/29 11:55:23;;;;;;;24.17;3.72;;;13.80;87.90;;;;;;7416474;19;20078;-84
2022/12/29 11:57:54;;;;;;;24.23;3.58;;;13.80;87.00;;;;;;7432976;19;20013;-87
2022/12/29 12:00:25;;;;;;;32.90;4.72;;;13.90;86.20;;;;;;7441905;19;20042;-84
2022/12/29 12:03:02;;;;;;;27.88;3.80;;;14.00;86.20;;;;;;7450258;19;20018;-85
2022/12/29 12:05:42;;;;;;;28.38;3.58;;;14.10;84.80;;;;;;7415464;19;20046;-84
2022/12/29 12:08:21;;;;;;;17.95;3.95;;;13.80;85.80;;;;;;7410863;19;20078;-85
2022/12/29 12:10:57;;;;;;;26.42;3.80;;;14.00;86.40;;;;;;7409793;19;20085;-84
2022/12/29 12:13:32;;;;;;;21.27;3.67;;;13.80;85.50;;;;;;7409761;19;20049;-90
2022/12/29 12:16:08;;;;;;;22.35;3.92;;;13.80;85.60;;;;;;7427014;19;20052;-87
2022/12/29 12:18:44;;;;;;;18.67;3.42;;;13.80;86.00;;;;;;7425105;19;20015;-90
2022/12/29 12:21:18;;;;;;;19.35;4.22;;;14.10;85.70;;;;;;7401095;19;20029;-88
2022/12/29 12:24:14;;;;;;;28.90;4.55;;;14.20;84.40;;;;;;7446770;19;20014;-88
2022/12/29 12:34:59;;;;;;;23.52;2.95;;;14.00;83.60;;;;;;7379976;19;20459;31
2022/12/29 12:37:46;;;;;;;20.70;3.65;;;13.80;83.30;;;;;;7397529;19;20022;-87
2022/12/29 12:42:58;;;;;;;23.88;2.78;;;13.90;83.60;;;;;;7345330;19;20031;-81
2022/12/29 12:45:44;;;;;;;23.05;2.80;;;14.00;83.20;;;;;;7388871;19;20019;-89
2022/12/29 12:50:54;;;;;;;20.30;2.60;;;13.80;83.30;;;;;;7439294;19;20593;-91
2022/12/29 12:53:39;;;;;;;14.18;2.33;;;13.70;83.00;;;;;;7416380;19;20014;-84
2022/12/29 12:56:29;;;;;;;33.03;3.30;;;13.70;83.40;;;;;;7417436;19;20018;-79
2022/12/29 12:59:05;;;;;;;29.05;3.65;;;13.90;81.70;;;;;;7409306;19;20037;-87
2022/12/29 13:01:45;;;;;;;15.02;2.67;;;13.90;82.30;;;;;;7416654;19;20022;-91
2022/12/29 13:04:55;;;;;;;22.45;3.00;;;13.60;81.80;;;;;;7420592;19;20014;-89
2022/12/29 13:07:36;;;;;;;19.85;2.80;;;13.70;81.70;;;;;;7408945;19;20018;-85
2022/12/29 13:10:28;;;;;;;13.55;2.60;;;13.80;82.00;;;;;;7406770;19;20113;-84
2022/12/29 13:13:12;;;;;;;24.10;3.30;;;13.70;81.70;;;;;;7405165;19;20022;-82
2022/12/29 13:15:49;;;;;;;30.60;3.20;;;13.80;82.30;;;;;;7406096;19;22212;-82
2022/12/29 13:18:26;;;;;;;15.07;2.72;;;13.90;81.40;;;;;;7405328;19;20082;-80
2022/12/29 13:21:03;;;;;;;18.33;2.60;;;13.90;81.20;;;;;;7430143;19;20097;-80
2022/12/29 13:23:44;;;;;;;20.73;3.03;;;13.70;81.80;;;;;;7405646;19;20014;-80
2022/12/29 13:26:20;;;;;;;30.30;3.87;;;13.80;82.30;;;;;;7404785;19;20101;-79
2022/12/29 13:28:57;;;;;;;22.65;2.95;;;13.90;82.40;;;;;;7406139;19;20018;-82
2022/12/29 13:31:36;;;;;;;22.20;2.78;;;13.70;82.00;;;;;;7405042;19;20085;-82
2022/12/29 13:34:14;;;;;;;25.60;3.33;;;13.60;83.20;;;;;;7406974;19;20076;-80
2022/12/29 13:36:46;;;;;;;30.17;3.28;;;13.80;82.90;;;;;;7436173;19;20002;-79
2022/12/29 13:39:22;;;;;;;29.80;3.15;;;13.80;83.20;;;;;;7417007;19;20026;-79
2022/12/29 13:41:54;;;;;;;17.88;3.58;;;13.90;82.50;;;;;;7426750;19;20117;-81
2022/12/29 13:44:29;;;;;;;25.98;3.00;;;13.70;82.30;;;;;;7398037;19;20465;-80
2022/12/29 13:47:01;;;;;;;16.20;2.78;;;13.90;82.20;;;;;;7379752;19;20472;-81
2022/12/29 13:49:31;;;;;;;16.52;2.80;;;13.90;81.60;;;;;;7373807;19;20908;-79
2022/12/29 13:52:06;;;;;;;21.95;2.58;;;13.90;81.60;;;;;;7376891;19;20086;-83
2022/12/29 13:54:48;;;;;;;19.25;2.97;;;13.90;81.00;;;;;;7384612;19;20074;-81
2022/12/29 13:57:21;;;;;;;;;;;13.90;80.50;;;;;;7377387;19;20023;-83
2022/12/29 13:59:55;;;;;;;29.15;3.28;;;13.80;81.00;;;;;;7395846;19;19926;-80
2022/12/29 14:02:34;;;;;;;28.50;3.40;;;13.80;80.70;;;;;;7381021;19;20098;-84
2022/12/29 14:05:04;;;;;;;29.33;3.10;;;13.90;80.80;;;;;;7384484;19;20022;-80
2022/12/29 14:07:39;;;;;;;21.42;3.22;;;14.00;81.00;;;;;;7380901;19;20118;-82
2022/12/29 14:10:31;;;;;;;19.10;2.70;;;14.00;81.10;;;;;;7380212;19;20030;-80
2022/12/29 14:13:07;;;;;;;25.85;2.92;;;13.90;80.70;;;;;;7387737;19;20014;-80
2022/12/29 14:15:40;;;;;;;14.82;2.97;;;14.00;80.20;;;;;;7381094;19;20078;-81
2022/12/29 14:18:19;;;;;;;28.20;3.08;;;13.90;78.90;;;;;;7377683;19;20018;-81
2022/12/29 14:20:55;;;;;;;20.35;4.50;;;13.90;79.30;;;;;;7400223;19;20029;-80
2022/12/29 14:23:39;;;;;;;29.17;5.75;;;13.90;79.30;;;;;;7379276;19;20014;-83
2022/12/29 14:26:40;;;;;;;20.50;5.32;;;13.80;79.20;;;;;;7376521;19;20055;-86
2022/12/29 14:31:44;;;;;;;23.95;3.22;;;13.90;78.90;;;;;;7366815;19;20046;-85
2022/12/29 14:34:32;;;;;;;13.50;2.90;;;13.80;79.00;;;;;;7382595;19;20014;-88
2022/12/29 14:37:05;;;;;;;21.83;3.40;;;13.90;79.20;;;;;;7387293;19;20014;-86
2022/12/29 14:39:47;;;;;;;13.13;2.80;;;14.10;79.10;;;;;;7398344;19;20072;-87
2022/12/29 14:42:22;;;;;;;21.80;2.95;;;14.10;79.20;;;;;;7358871;19;20014;-89
2022/12/29 14:44:53;;;;;;;25.17;3.13;;;14.30;79.40;;;;;;7417937;19;20015;-92
2022/12/29 14:47:43;;;;;;;17.88;3.40;;;14.30;80.50;;;;;;7389576;19;20095;-89
2022/12/29 14:50:19;;;;;;;21.00;3.55;;;14.30;80.30;;;;;;7384358;19;20011;-84
2022/12/29 14:52:52;;;;;;;22.70;3.47;;;14.30;80.30;;;;;;7378094;19;20019;-84
2022/12/29 14:55:41;;;;;;;19.58;2.97;;;14.30;80.80;;;;;;7377816;19;20047;-86
2022/12/29 14:58:18;;;;;;;14.07;1.98;;;14.10;79.80;;;;;;7388043;19;20007;-87
2022/12/29 15:00:48;;;;;;;22.08;3.10;;;14.00;80.60;;;;;;7382666;19;20060;-83
2022/12/29 15:03:22;;;;;;;13.95;3.08;;;14.00;80.90;;;;;;7395913;19;20011;-83
2022/12/29 15:05:53;;;;;;;13.05;2.58;;;13.90;79.40;;;;;;7427768;19;20006;-86
2022/12/29 15:08:26;;;;;;;16.85;2.53;;;13.90;79.10;;;;;;7407837;19;20006;-86
2022/12/29 15:10:58;;;;;;;19.90;3.65;;;13.80;78.80;;;;;;7397037;19;20021;-85
2022/12/29 15:13:40;;;;;;;23.88;3.38;;;13.90;79.10;;;;;;7395501;19;20086;-85
2022/12/29 15:16:24;;;;;;;18.50;3.35;;;13.90;78.10;;;;;;7385132;19;20466;-85
2022/12/29 15:18:53;;;;;;;18.58;2.60;;;14.00;77.70;;;;;;7377714;19;20129;-85
2022/12/29 15:21:27;;;;;;;16.33;2.63;;;13.90;77.70;;;;;;7378075;19;20094;-84
2022/12/29 15:23:56;;;;;;;14.95;3.00;;;13.90;77.40;;;;;;7399376;19;20025;-86
2022/12/29 15:26:25;;;;;;;17.50;2.70;;;13.90;76.90;;;;;;7379222;19;20427;-87
2022/12/29 15:28:57;;;;;;;17.85;2.80;;;13.70;76.10;;;;;;7383113;19;20088;-87
2022/12/29 15:31:28;;;;;;;20.73;2.90;;;13.70;76.40;;;;;;7381653;19;20976;-86
2022/12/29 15:34:05;;;;;;;15.70;2.78;;;13.60;76.40;;;;;;7392825;19;20003;-86
2022/12/29 15:36:42;;;;;;;18.10;2.58;;;13.60;76.30;;;;;;7386701;19;20020;-87
2022/12/29 15:39:21;;;;;;;25.80;2.97;;;13.70;76.30;;;;;;7405966;19;20009;-87
2022/12/29 15:42:03;;;;;;;14.40;2.85;;;13.70;76.00;;;;;;7422651;19;20078;-88
2022/12/29 15:44:39;;;;;;;25.40;2.92;;;13.80;75.70;;;;;;7396666;19;20275;-90
2022/12/29 15:47:14;;;;;;;14.93;2.97;;;13.80;75.70;;;;;;7395234;19;20014;-88
2022/12/29 15:49:45;;;;;;;18.20;3.30;;;13.80;75.70;;;;;;7392359;19;20042;-89
2022/12/29 15:52:20;;;;;;;19.27;2.83;;;13.60;75.80;;;;;;7329353;19;21287;-91
2022/12/29 15:57:26;;;;;;;23.50;2.65;;;13.50;75.80;;;;;;7369911;19;20011;-90
2022/12/29 15:59:57;;;;;;;23.50;2.80;;;13.50;75.80;;;;;;7421413;19;20013;-90
2022/12/29 16:02:26;;;;;;;;;;;13.40;76.00;;;;;;7407777;19;20014;-91
2022/12/29 16:04:56;;;;;;;26.25;4.15;;;13.60;76.20;;;;;;7405525;19;19911;-90
2022/12/29 16:07:30;;;;;;;15.75;2.33;;;13.50;76.00;;;;;;7381463;19;20021;-90
2022/12/29 16:10:00;;;;;;;27.00;3.63;;;13.50;76.30;;;;;;7349165;19;20014;-90
2022/12/29 16:36:35;;;;;;;33.30;10.85;;;13.40;78.80;;;;;;7358361;19;20033;-89
2022/12/29 16:39:28;;;;;;;43.65;14.45;;;13.40;79.00;;;;;;7399759;19;20240;-82
2022/12/29 16:41:57;;;;;;;121.25;53.50;;;13.30;79.40;;;;;;7373060;19;20589;-86
2022/12/29 16:44:31;;;;;;;87.20;35.08;;;13.30;79.20;;;;;;7379770;19;20010;-89
2022/12/29 16:49:39;;;;;;;53.72;20.17;;;13.30;79.60;;;;;;7322273;19;20003;-92
2022/12/29 16:52:21;;;;;;;25.85;6.30;;;13.30;79.80;;;;;;7376650;19;20014;-87
2022/12/29 16:54:55;;;;;;;31.23;9.95;;;13.20;79.60;;;;;;7400183;19;20011;-92
2022/12/29 17:00:02;;;;;;;24.05;8.25;;;13.20;80.00;;;;;;7353855;19;20023;-89
2022/12/29 17:02:33;;;;;;;25.48;5.88;;;13.10;80.10;;;;;;7387362;19;20007;-88
2022/12/29 17:05:02;;;;;;;;;;;13.10;80.10;;;;;;7374812;19;20586;-87
2022/12/29 17:07:33;;;;;;;22.20;4.00;;;13.10;80.00;;;;;;7396195;19;19930;-92
2022/12/29 17:10:02;;;;;;;16.23;3.80;;;13.10;80.20;;;;;;7380515;19;20022;-84
2022/12/29 17:12:32;;;;;;;17.17;3.15;;;13.00;80.10;;;;;;7375484;19;20113;-88
2022/12/29 17:15:04;;;;;;;19.00;3.33;;;13.00;80.50;;;;;;7404990;19;20018;-85
2022/12/29 17:17:36;;;;;;;28.05;5.57;;;12.90;80.50;;;;;;7389325;19;20028;-89
2022/12/29 17:20:16;;;;;;;38.92;12.57;;;12.90;80.60;;;;;;7405233;19;20011;-87
2022/12/29 17:22:48;;;;;;;24.48;8.18;;;12.80;80.60;;;;;;7398966;19;20022;-89
2022/12/29 17:25:18;;;;;;;25.35;4.22;;;12.80;81.00;;;;;;7391453;19;20031;-86
2022/12/29 17:27:51;;;;;;;17.70;3.80;;;12.70;81.10;;;;;;7384869;19;20025;-90
2022/12/29 17:30:23;;;;;;;37.95;16.42;;;12.70;81.50;;;;;;7396739;19;20027;-91
2022/12/29 17:32:54;;;;;;;18.80;3.67;;;12.70;81.50;;;;;;7407226;19;20022;-82
2022/12/29 17:35:24;;;;;;;19.83;3.40;;;12.60;81.40;;;;;;7381624;19;20102;-85
2022/12/29 17:37:56;;;;;;;24.58;4.22;;;12.60;81.80;;;;;;7381972;19;20078;-81
2022/12/29 17:40:29;;;;;;;23.23;3.80;;;12.50;81.60;;;;;;7385706;19;20450;-82
2022/12/29 17:42:59;;;;;;;35.22;10.32;;;12.50;82.20;;;;;;7380490;19;20018;-83
2022/12/29 17:45:30;;;;;;;19.00;6.35;;;12.50;81.80;;;;;;7387823;19;20022;-83
2022/12/29 17:48:00;;;;;;;27.90;5.10;;;12.40;82.00;;;;;;7404926;19;20033;-83
2022/12/29 17:50:31;;;;;;;24.50;5.75;;;12.40;82.90;;;;;;7379539;19;20014;-83
2022/12/29 17:53:06;;;;;;;21.20;5.13;;;12.40;82.30;;;;;;7381035;19;20077;-84
2022/12/29 17:55:35;;;;;;;32.08;4.82;;;12.40;82.20;;;;;;7383855;19;20088;-83
2022/12/29 17:58:04;;;;;;;29.23;8.57;;;12.30;82.20;;;;;;7392035;19;20435;-81
2022/12/29 18:00:33;;;;;;;23.08;9.25;;;12.30;82.20;;;;;;7387213;19;20015;-83
2022/12/29 18:03:01;;;;;;;36.08;9.10;;;12.30;82.30;;;;;;7406555;19;20098;-81
2022/12/29 18:05:32;;;;;;;26.15;6.03;;;12.30;82.50;;;;;;7361513;19;20010;-78
2022/12/29 18:08:03;;;;;;;21.40;5.27;;;12.30;82.60;;;;;;7369893;19;20089;-79
2022/12/29 18:10:32;;;;;;;21.75;4.38;;;12.30;82.70;;;;;;7373040;19;20350;-79
2022/12/29 18:13:02;;;;;;;19.98;4.47;;;12.30;82.70;;;;;;7371038;19;20423;-78
2022/12/29 18:15:33;;;;;;;36.67;5.70;;;12.30;82.70;;;;;;7371673;19;20018;-79
2022/12/29 18:18:05;;;;;;;31.30;6.25;;;12.20;82.60;;;;;;7392388;19;20051;-78
2022/12/29 18:20:33;;;;;;;;;;;12.20;83.00;;;;;;7375212;19;20077;-78
2022/12/29 18:23:05;;;;;;;20.30;4.32;;;12.20;83.20;;;;;;7373090;19;19967;-78
2022/12/29 18:25:43;;;;;;;20.40;4.20;;;12.10;83.10;;;;;;7371412;19;20026;-79
2022/12/29 18:28:13;;;;;;;21.83;3.75;;;12.20;83.50;;;;;;7372151;19;20482;-79
2022/12/29 18:30:41;;;;;;;21.98;3.75;;;12.20;83.20;;;;;;7372754;19;20082;-78
2022/12/29 18:33:15;;;;;;;23.60;3.72;;;12.10;83.00;;;;;;7374940;19;20111;-77
2022/12/29 18:35:48;;;;;;;19.60;4.82;;;12.10;83.20;;;;;;7390478;19;20022;-78
2022/12/29 18:38:19;;;;;;;20.35;5.15;;;12.10;83.40;;;;;;7372206;19;20106;-78
2022/12/29 18:40:49;;;;;;;11.18;3.72;;;12.00;83.50;;;;;;7372573;19;20106;-78
2022/12/29 18:43:18;;;;;;;28.88;6.53;;;12.00;83.60;;;;;;7373258;19;20122;-77
2022/12/29 18:45:48;;;;;;;29.48;7.95;;;12.00;83.80;;;;;;7372270;19;20244;-78
2022/12/29 18:48:18;;;;;;;28.35;8.82;;;12.00;83.90;;;;;;7371487;19;20371;-78
2022/12/29 18:50:48;;;;;;;28.10;8.15;;;12.00;84.00;;;;;;7396126;19;20033;-78
2022/12/29 18:53:22;;;;;;;26.80;7.93;;;12.00;83.70;;;;;;7372327;19;20017;-78
2022/12/29 18:55:51;;;;;;;35.00;9.70;;;12.00;84.10;;;;;;7371335;19;20018;-78
2022/12/29 18:58:19;;;;;;;32.10;8.30;;;12.10;84.20;;;;;;7372144;19;20022;-78
2022/12/29 19:00:48;;;;;;;21.05;7.22;;;12.10;84.10;;;;;;7370646;19;20018;-78
2022/12/29 19:03:19;;;;;;;20.40;5.68;;;12.10;83.80;;;;;;7371487;19;20093;-78
2022/12/29 19:05:49;;;;;;;27.48;5.18;;;12.00;84.10;;;;;;7393682;19;20350;-78
2022/12/29 19:08:20;;;;;;;21.40;3.60;;;12.10;84.30;;;;;;7372800;19;20030;-78
2022/12/29 19:10:49;;;;;;;24.55;5.72;;;12.10;84.20;;;;;;7371161;19;20094;-78
2022/12/29 19:13:19;;;;;;;20.27;4.80;;;12.10;83.80;;;;;;7370739;19;20052;-77
2022/12/29 19:15:49;;;;;;;36.63;6.88;;;12.10;83.60;;;;;;7369238;19;20114;-78
2022/12/29 19:18:21;;;;;;;35.83;6.90;;;12.10;83.80;;;;;;7371240;19;20822;-77
2022/12/29 19:20:52;;;;;;;34.50;9.82;;;12.10;83.70;;;;;;7391076;19;20026;-78
2022/12/29 19:23:28;;;;;;;37.50;10.57;;;12.00;83.50;;;;;;7369075;19;20086;-78
2022/12/29 19:25:57;;;;;;;41.05;9.55;;;12.00;83.90;;;;;;7368578;19;20375;-78
2022/12/29 19:28:28;;;;;;;39.90;9.40;;;12.10;84.10;;;;;;7371293;19;20474;-78
2022/12/29 19:31:00;;;;;;;32.40;6.97;;;12.10;84.10;;;;;;7370792;19;20098;-80
2022/12/29 19:33:29;;;;;;;39.53;8.45;;;12.10;84.70;;;;;;7370718;19;20094;-81
2022/12/29 19:36:02;;;;;;;37.55;9.23;;;12.10;83.90;;;;;;7392853;19;20495;-87
2022/12/29 19:38:33;;;;;;;30.70;7.65;;;12.10;83.80;;;;;;7374193;19;20549;-87
2022/12/29 19:41:02;;;;;;;19.70;6.32;;;12.10;83.60;;;;;;7377922;19;20035;-83
2022/12/29 19:43:30;;;;;;;25.17;5.43;;;12.10;83.50;;;;;;7372110;19;20113;-81
2022/12/29 19:45:59;;;;;;;25.45;6.28;;;12.00;83.60;;;;;;7375724;19;20113;-81
2022/12/29 19:48:28;;;;;;;26.42;6.13;;;12.00;84.10;;;;;;7372868;19;20392;-82
2022/12/29 19:50:56;;;;;;;26.40;6.85;;;12.10;84.00;;;;;;7391901;19;20675;-81
2022/12/29 19:53:27;;;;;;;31.92;6.95;;;12.00;84.00;;;;;;7374533;19;20326;-80
2022/12/29 19:55:58;;;;;;;21.33;4.87;;;12.00;84.10;;;;;;7376733;19;20102;-79
2022/12/29 19:58:27;;;;;;;23.30;6.43;;;12.00;84.50;;;;;;7381259;19;20035;-81
2022/12/29 20:00:56;;;;;;;25.13;6.65;;;12.00;84.40;;;;;;7376835;19;20014;-80
2022/12/29 20:03:24;;;;;;;27.67;6.63;;;12.00;84.20;;;;;;7374603;19;20330;-79
2022/12/29 20:05:53;;;;;;;29.17;5.97;;;12.00;84.10;;;;;;7392086;19;20031;-81
2022/12/29 20:08:24;;;;;;;29.48;5.68;;;12.00;84.10;;;;;;7372438;19;20074;-79
2022/12/29 20:11:02;;;;;;;26.67;5.78;;;12.00;84.50;;;;;;7371593;19;20481;-80
2022/12/29 20:13:31;;;;;;;23.40;6.15;;;12.00;84.40;;;;;;7375315;19;20190;-79
2022/12/29 20:16:01;;;;;;;22.85;5.72;;;12.00;84.00;;;;;;7375177;19;20113;-79
2022/12/29 20:18:30;;;;;;;27.35;5.13;;;12.00;83.60;;;;;;7372430;19;20027;-79
2022/12/29 20:21:04;;;;;;;21.88;5.45;;;12.00;83.40;;;;;;7386811;19;20029;-79
2022/12/29 20:23:33;;;;;;;20.67;4.82;;;11.90;83.40;;;;;;7370080;19;20098;-79
2022/12/29 20:26:05;;;;;;;28.35;4.40;;;11.90;83.40;;;;;;7370653;19;20108;-79
2022/12/29 20:28:34;;;;;;;27.52;5.32;;;11.90;83.50;;;;;;7369865;19;20049;-79
2022/12/29 20:31:06;;;;;;;26.08;4.80;;;11.90;83.50;;;;;;7370125;19;20726;-79
2022/12/29 20:33:36;;;;;;;24.20;5.28;;;11.80;83.60;;;;;;7370605;19;20078;-79
2022/12/29 20:36:08;;;;;;;15.95;4.47;;;11.80;83.70;;;;;;7385599;19;20014;-78
2022/12/29 20:38:38;;;;;;;21.48;4.15;;;11.80;83.90;;;;;;7390788;19;20010;-80
2022/12/29 20:41:09;;;;;;;30.67;5.38;;;11.80;83.80;;;;;;7369734;19;20026;-80
2022/12/29 20:43:37;;;;;;;;;;;11.80;84.40;;;;;;7371014;19;20517;-80
2022/12/29 20:46:06;;;;;;;26.25;4.78;;;11.80;84.70;;;;;;7370403;19;19926;-78
2022/12/29 20:48:36;;;;;;;19.50;5.20;;;11.70;85.20;;;;;;7370548;19;20121;-78
2022/12/29 20:51:05;;;;;;;19.02;4.38;;;11.50;87.40;;;;;;7385574;19;20062;-78
2022/12/29 20:53:35;;;;;;;20.20;5.25;;;11.60;87.20;;;;;;7389224;19;20098;-79
2022/12/29 20:56:07;;;;;;;15.50;4.68;;;11.60;86.80;;;;;;7375526;19;20045;-80
2022/12/29 20:58:38;;;;;;;24.10;5.30;;;11.70;86.80;;;;;;7382736;19;20110;-79
2022/12/29 21:01:10;;;;;;;21.33;6.45;;;11.70;86.70;;;;;;7379446;19;20494;-78
2022/12/29 21:03:39;;;;;;;19.40;5.55;;;11.80;86.50;;;;;;7379165;19;20041;-79
2022/12/29 21:06:09;;;;;;;30.83;7.38;;;11.80;86.50;;;;;;7375175;19;20022;-78
2022/12/29 21:08:39;;;;;;;35.80;6.90;;;11.80;86.70;;;;;;7396839;19;20029;-79
2022/12/29 21:11:09;;;;;;;27.30;5.95;;;11.80;86.90;;;;;;7377683;19;20572;-79
2022/12/29 21:13:41;;;;;;;16.35;5.07;;;11.80;87.30;;;;;;7378618;19;20010;-79
2022/12/29 21:16:10;;;;;;;;;;;11.80;87.80;;;;;;7376310;19;20113;-79
2022/12/29 21:18:39;;;;;;;32.10;4.82;;;11.90;88.20;;;;;;7377602;19;19954;-78
2022/12/29 21:21:11;;;;;;;34.05;7.00;;;11.90;88.20;;;;;;7377228;19;20018;-78
2022/12/29 21:23:40;;;;;;;22.65;6.65;;;11.90;88.00;;;;;;7395966;19;20014;-78
2022/12/29 21:26:10;;;;;;;29.88;7.38;;;11.80;88.40;;;;;;7378697;19;20099;-78
2022/12/29 21:28:45;;;;;;;27.48;5.50;;;11.90;88.50;;;;;;7378380;19;20010;-80
2022/12/29 21:31:24;;;;;;;23.52;5.55;;;11.90;88.50;;;;;;7379487;19;20014;-79
2022/12/29 21:33:53;;;;;;;28.45;5.78;;;11.90;88.30;;;;;;7376453;19;20036;-79
2022/12/29 21:36:22;;;;;;;21.02;5.15;;;11.90;88.10;;;;;;7377858;19;20026;-80
2022/12/29 21:38:51;;;;;;;27.08;4.65;;;11.90;88.30;;;;;;7397868;19;20025;-80
2022/12/29 21:41:20;;;;;;;23.75;5.85;;;11.90;88.50;;;;;;7376090;19;20021;-79
2022/12/29 21:46:33;;;;;;;22.63;5.85;;;11.90;88.40;;;;;;7374087;19;20011;-79
2022/12/29 21:49:02;;;;;;;20.48;5.10;;;11.90;88.00;;;;;;7376535;19;20034;-79
2022/12/29 21:57:06;;;;;;;20.88;4.32;;;11.80;87.40;;;;;;7391506;19;20019;-78
2022/12/29 22:13:11;;;;;;;25.30;4.75;;;11.70;87.10;;;;;;7379413;19;20081;-79
2022/12/29 22:15:42;;;;;;;17.55;4.13;;;11.70;86.80;;;;;;7378702;19;20010;-79
2022/12/29 22:18:11;;;;;;;;;;;11.70;86.70;;;;;;7379479;19;20010;-78
2022/12/29 22:20:41;;;;;;;21.55;4.05;;;11.70;86.30;;;;;;7394598;19;19919;-79
2022/12/29 22:23:10;;;;;;;18.40;4.33;;;11.60;86.50;;;;;;7374321;19;20119;-78
2022/12/29 22:25:40;;;;;;;22.88;4.43;;;11.60;87.20;;;;;;7377211;19;20495;-79
2022/12/29 22:28:09;;;;;;;32.45;4.72;;;11.60;87.40;;;;;;7373199;19;20446;-78
2022/12/29 22:30:42;;;;;;;22.70;4.60;;;11.60;87.70;;;;;;7370552;19;20017;-78
2022/12/29 22:33:11;;;;;;;17.23;4.28;;;11.60;87.60;;;;;;7375283;19;20056;-80
2022/12/29 22:35:40;;;;;;;17.98;3.80;;;11.60;86.80;;;;;;7391736;19;20684;-79
2022/12/29 22:38:09;;;;;;;21.92;4.05;;;11.60;86.20;;;;;;7372896;19;20391;-79
2022/12/29 22:40:38;;;;;;;15.75;3.78;;;11.50;86.10;;;;;;7373133;19;20047;-79
2022/12/29 22:43:06;;;;;;;27.00;4.22;;;11.50;86.50;;;;;;7375855;19;20105;-78
2022/12/29 22:45:35;;;;;;;20.08;3.78;;;11.50;86.50;;;;;;7381921;19;20022;-84
2022/12/29 22:48:07;;;;;;;12.80;3.63;;;11.40;86.70;;;;;;7411021;19;20007;-83
2022/12/29 22:50:36;;;;;;;17.73;3.88;;;11.40;86.90;;;;;;7383229;19;20022;-88
2022/12/29 22:53:08;;;;;;;21.08;3.72;;;11.40;87.70;;;;;;7379103;19;20090;-86
2022/12/29 22:55:36;;;;;;;17.92;4.28;;;11.40;87.70;;;;;;7377959;19;20025;-85
2022/12/29 22:58:05;;;;;;;23.25;4.15;;;11.40;87.10;;;;;;7381601;19;20018;-83
2022/12/29 23:00:34;;;;;;;19.50;5.30;;;11.30;87.10;;;;;;7383602;19;20010;-85
2022/12/29 23:03:03;;;;;;;14.98;3.47;;;11.30;87.10;;;;;;7421245;19;20047;-85
2022/12/29 23:05:35;;;;;;;12.10;3.60;;;11.30;86.80;;;;;;7404670;19;20015;-84
2022/12/29 23:08:03;;;;;;;17.10;4.13;;;11.30;87.00;;;;;;7386248;19;20014;-85
2022/12/29 23:10:32;;;;;;;18.63;3.58;;;11.30;86.50;;;;;;7377330;19;20054;-84
2022/12/29 23:13:01;;;;;;;21.13;3.95;;;11.20;86.10;;;;;;7377287;19;20105;-83
2022/12/29 23:15:29;;;;;;;19.95;3.13;;;11.20;86.40;;;;;;7384662;19;20018;-84
2022/12/29 23:17:58;;;;;;;24.58;3.85;;;11.20;86.50;;;;;;7423988;19;20020;-84
2022/12/29 23:20:27;;;;;;;19.67;3.60;;;11.20;86.80;;;;;;7405581;19;20039;-84
2022/12/29 23:22:58;;;;;;;18.02;3.67;;;11.20;86.30;;;;;;7392905;19;20051;-84
2022/12/29 23:25:27;;;;;;;16.80;3.20;;;11.10;85.90;;;;;;7384731;19;20014;-84
2022/12/29 23:27:55;;;;;;;19.92;3.67;;;11.10;86.60;;;;;;7379085;19;20071;-84
2022/12/29 23:30:24;;;;;;;20.20;3.50;;;11.10;86.50;;;;;;7378553;19;21130;-84
2022/12/29 23:32:53;;;;;;;11.45;3.70;;;11.10;86.80;;;;;;7399748;19;20391;-83
2022/12/29 23:35:22;;;;;;;19.20;3.53;;;11.10;86.90;;;;;;7373662;19;20007;-84
2022/12/29 23:37:51;;;;;;;21.83;3.63;;;11.10;86.60;;;;;;7374363;19;20193;-85
2022/12/29 23:40:22;;;;;;;13.75;3.33;;;11.10;86.30;;;;;;7377885;19;20018;-84
2022/12/29 23:42:51;;;;;;;15.20;3.28;;;11.10;86.20;;;;;;7376121;19;20015;-84
2022/12/29 23:45:19;;;;;;;22.30;3.70;;;11.00;86.40;;;;;;7377191;19;20089;-83
2022/12/29 23:47:48;;;;;;;17.90;4.10;;;11.00;86.50;;;;;;7398587;19;20039;-83
2022/12/29 23:50:17;;;;;;;18.33;4.13;;;11.00;86.80;;;;;;7372010;19;20803;-83
2022/12/29 23:52:45;;;;;;;12.35;3.70;;;11.00;87.00;;;;;;7372240;19;20022;-84
2022/12/29 23:55:14;;;;;;;18.17;3.95;;;11.00;86.80;;;;;;7374215;19;20029;-83
2022/12/29 23:57:45;;;;;;;16.42;3.97;;;11.00;86.60;;;;;;7370649;19;20030;-83
